Time;durP1;ratioP1;P1;durP2;ratioP2;P2;SDS_P1;SDS_P2;PMS_P1;PMS_P2;Temp;Humidity;BMP_temperature;BMP_pressure;BME280_temperature;BME280_humidity;BME280_pressure;Samples;Min_cycle;Max_cycle;Signal;HPM_P1;HPM_P2
2022/07/08 00:01:17;;;;;;;4.03;1.25;;;;;;;16.07;60.60;99780.75;4096207;28;20908;-59
2022/07/08 00:03:21;;;;;;;3.38;1.17;;;;;;;16.06;60.59;99773.56;4084505;29;20384;-60
2022/07/08 00:05:23;;;;;;;2.95;1.00;;;;;;;16.08;60.84;99776.06;4091275;28;20706;-59
2022/07/08 00:07:25;;;;;;;4.38;1.60;;;;;;;16.07;60.76;99778.00;4084585;29;20268;-61
2022/07/08 00:09:27;;;;;;;6.10;1.20;;;;;;;16.03;60.98;99770.50;4081985;28;20707;-59
2022/07/08 00:11:29;;;;;;;4.15;1.20;;;;;;;16.02;61.04;99775.16;4085932;29;20774;-59
2022/07/08 00:13:30;;;;;;;4.95;1.10;;;;;;;16.00;61.11;99771.81;4084603;29;20685;-60
2022/07/08 00:15:32;;;;;;;4.82;1.27;;;;;;;16.10;60.84;99769.19;4071115;29;20208;-61
2022/07/08 00:17:34;;;;;;;5.00;1.23;;;;;;;16.05;61.07;99760.88;4097077;28;20215;-60
2022/07/08 00:19:36;;;;;;;5.15;1.25;;;;;;;16.09;60.90;99762.00;4074057;29;20303;-60
2022/07/08 00:21:37;;;;;;;5.35;1.45;;;;;;;16.07;60.98;99769.72;4090774;28;20234;-59
2022/07/08 00:23:39;;;;;;;3.45;1.02;;;;;;;16.05;61.01;99754.50;4084996;29;20283;-60
2022/07/08 00:25:41;;;;;;;3.65;1.38;;;;;;;16.02;61.09;99766.06;4105469;28;20666;-59
2022/07/08 00:27:42;;;;;;;3.67;1.13;;;;;;;16.00;61.23;99766.31;4090639;29;20204;-60
2022/07/08 00:29:44;;;;;;;5.05;1.73;;;;;;;15.96;61.28;99772.59;4084445;29;20286;-60
2022/07/08 00:31:52;;;;;;;4.25;1.10;;;;;;;15.95;61.27;99771.75;4083856;29;20255;-60
2022/07/08 00:33:54;;;;;;;4.60;1.52;;;;;;;15.85;61.61;99777.13;4079728;28;20215;-59
2022/07/08 00:35:56;;;;;;;6.80;1.20;;;;;;;15.77;61.62;99774.78;4074463;29;20213;-60
2022/07/08 00:37:57;;;;;;;5.95;1.08;;;;;;;15.70;61.85;99785.16;4083813;29;20227;-60
2022/07/08 00:39:59;;;;;;;4.47;1.60;;;;;;;15.66;62.05;99777.63;4080986;29;20239;-60
2022/07/08 00:42:01;;;;;;;4.18;1.00;;;;;;;15.66;62.11;99789.53;4085901;28;20214;-60
2022/07/08 00:44:03;;;;;;;3.45;1.17;;;;;;;15.69;62.26;99790.94;4068573;29;20216;-59
2022/07/08 00:46:05;;;;;;;5.07;1.45;;;;;;;15.64;62.35;99788.91;4082290;28;20228;-59
2022/07/08 00:48:07;;;;;;;4.32;1.40;;;;;;;15.66;62.15;99794.19;4069046;29;20725;-60
2022/07/08 00:50:12;;;;;;;4.25;1.20;;;;;;;15.69;62.20;99790.94;4084955;29;20785;-58
2022/07/08 00:52:14;;;;;;;9.10;1.63;;;;;;;15.67;62.29;99796.72;4071552;29;20215;-60
2022/07/08 00:54:19;;;;;;;3.88;1.33;;;;;;;15.66;62.50;99797.81;4085052;29;20211;-59
2022/07/08 00:56:21;;;;;;;5.68;1.52;;;;;;;15.63;62.68;99792.78;4056274;29;20205;-59
2022/07/08 00:58:25;;;;;;;4.28;1.55;;;;;;;15.63;62.64;99795.53;4099015;28;20227;-59
2022/07/08 01:00:27;;;;;;;5.97;1.48;;;;;;;15.47;62.75;99801.91;4067731;29;20260;-60
2022/07/08 01:02:29;;;;;;;5.15;1.38;;;;;;;15.30;63.22;99798.25;4071070;29;20271;-59
2022/07/08 01:04:31;;;;;;;6.57;1.73;;;;;;;15.24;63.45;99796.47;4067985;29;20201;-60
2022/07/08 01:06:33;;;;;;;13.50;2.05;;;;;;;15.19;63.39;99793.66;4073155;29;20299;-59
2022/07/08 01:08:35;;;;;;;2.90;1.20;;;;;;;15.23;63.59;99800.31;4077986;29;20207;-59
2022/07/08 01:10:37;;;;;;;3.83;1.45;;;;;;;15.30;63.40;99792.72;4075623;29;21225;-59
2022/07/08 01:12:39;;;;;;;3.65;1.15;;;;;;;15.37;63.64;99796.19;4080459;29;20259;-59
2022/07/08 01:14:41;;;;;;;7.60;1.30;;;;;;;15.43;63.33;99794.38;4080763;29;20591;-58
2022/07/08 01:16:43;;;;;;;9.85;1.70;;;;;;;15.45;63.55;99797.72;4083829;28;20212;-59
2022/07/08 01:18:45;;;;;;;4.20;1.10;;;;;;;15.42;63.60;99793.53;4075363;29;20216;-59
2022/07/08 01:20:46;;;;;;;5.55;1.30;;;;;;;15.40;64.02;99783.81;4071591;29;20200;-59
2022/07/08 01:22:48;;;;;;;2.55;1.23;;;;;;;15.37;64.61;99785.16;4069264;29;20814;-60
2022/07/08 01:24:50;;;;;;;3.65;1.42;;;;;;;15.36;64.32;99794.53;4081121;28;20207;-60
2022/07/08 01:26:52;;;;;;;4.18;1.30;;;;;;;15.32;64.58;99798.03;4055663;29;20240;-60
2022/07/08 01:28:53;;;;;;;4.85;1.73;;;;;;;15.31;64.55;99791.63;4068145;29;20295;-59
2022/07/08 01:30:55;;;;;;;3.00;1.20;;;;;;;15.33;64.73;99789.53;4082801;29;20721;-59
2022/07/08 01:32:57;;;;;;;4.30;1.05;;;;;;;15.33;64.53;99794.19;4070240;29;20696;-60
2022/07/08 01:34:59;;;;;;;3.95;1.05;;;;;;;15.32;64.75;99803.56;4083557;28;20215;-59
2022/07/08 01:37:02;;;;;;;3.20;1.20;;;;;;;15.32;64.81;99787.84;4055930;29;20664;-58
2022/07/08 01:39:04;;;;;;;5.00;1.38;;;;;;;15.29;64.79;99788.31;4066921;29;20221;-60
2022/07/08 01:41:06;;;;;;;4.57;1.13;;;;;;;15.28;64.60;99791.31;4080150;29;20211;-58
2022/07/08 01:43:07;;;;;;;4.70;1.67;;;;;;;15.24;64.49;99796.47;4102416;28;20210;-60
2022/07/08 01:45:09;;;;;;;4.38;1.40;;;;;;;15.19;64.63;99787.28;4083311;29;20210;-59
2022/07/08 01:47:11;;;;;;;5.38;1.73;;;;;;;15.15;64.83;99797.97;4071267;29;20695;-60
2022/07/08 01:49:14;;;;;;;11.63;1.35;;;;;;;15.10;64.94;99792.38;4070178;29;20292;-58
2022/07/08 01:51:16;;;;;;;6.38;1.52;;;;;;;15.05;65.10;99789.53;4071071;29;20367;-59
2022/07/08 01:53:18;;;;;;;2.92;0.93;;;;;;;14.96;65.15;99807.53;4068912;29;20216;-59
2022/07/08 01:55:19;;;;;;;5.97;1.40;;;;;;;14.83;65.43;99810.59;4073293;29;20217;-60
2022/07/08 01:57:21;;;;;;;2.97;1.13;;;;;;;14.78;65.71;99813.28;4070200;29;20246;-60
2022/07/08 01:59:23;;;;;;;3.88;1.33;;;;;;;14.73;65.79;99810.41;4059011;29;20263;-59
2022/07/08 02:01:25;;;;;;;2.95;1.27;;;;;;;14.68;65.88;99815.81;4066191;29;20301;-60
2022/07/08 02:03:26;;;;;;;4.28;1.52;;;;;;;14.66;65.90;99798.69;4063285;29;20212;-60
2022/07/08 02:05:28;;;;;;;1.85;1.05;;;;;;;14.66;66.27;99806.97;4081665;29;20215;-59
2022/07/08 02:07:31;;;;;;;4.78;1.35;;;;;;;14.64;66.15;99811.84;4099515;28;20207;-60
2022/07/08 02:09:34;;;;;;;4.20;1.48;;;;;;;14.65;65.96;99810.81;4084186;29;20228;-59
2022/07/08 02:13:56;;;;;;;1.67;1.20;;;;;;;14.58;66.35;99807.31;4084189;28;20278;-59
2022/07/08 02:15:57;;;;;;;2.50;1.25;;;;;;;14.57;66.32;99815.84;4067895;29;20280;-59
2022/07/08 02:17:59;;;;;;;5.40;1.38;;;;;;;14.54;66.30;99817.19;4055799;29;20212;-59
2022/07/08 02:20:07;;;;;;;2.33;1.30;;;;;;;14.52;66.32;99816.59;4080694;29;20227;-59
2022/07/08 02:22:10;;;;;;;3.38;1.52;;;;;;;14.49;66.19;99819.81;4083232;28;20199;-59
2022/07/08 02:24:13;;;;;;;1.92;1.00;;;;;;;14.47;66.53;99816.47;4106548;28;20300;-59
2022/07/08 02:26:15;;;;;;;2.83;1.33;;;;;;;14.42;66.52;99815.53;4081525;29;20862;-60
2022/07/08 02:28:17;;;;;;;1.65;0.95;;;;;;;14.38;67.08;99819.84;4082225;29;20212;-59
2022/07/08 02:30:18;;;;;;;3.67;1.65;;;;;;;14.32;67.25;99812.56;4080314;28;20813;-60
2022/07/08 02:32:20;;;;;;;4.78;1.67;;;;;;;14.27;67.65;99806.94;4067364;29;20233;-59
2022/07/08 02:34:22;;;;;;;5.35;1.40;;;;;;;14.21;67.61;99821.66;4064604;29;20267;-59
2022/07/08 02:36:23;;;;;;;5.00;1.90;;;;;;;14.14;67.80;99810.75;4087086;29;20344;-59
2022/07/08 02:38:25;;;;;;;3.50;1.48;;;;;;;14.09;67.88;99813.38;4090376;29;20235;-60
2022/07/08 02:40:27;;;;;;;5.47;1.52;;;;;;;14.07;67.84;99803.69;4099825;28;20737;-59
2022/07/08 02:42:29;;;;;;;3.17;1.55;;;;;;;14.04;68.03;99801.44;4086538;28;20714;-60
2022/07/08 02:44:31;;;;;;;4.65;1.65;;;;;;;13.97;68.23;99804.28;4091992;29;20295;-58
2022/07/08 02:46:34;;;;;;;2.88;1.60;;;;;;;13.91;68.31;99791.50;4085211;29;20203;-58
2022/07/08 02:48:36;;;;;;;2.72;1.20;;;;;;;13.82;68.57;99801.19;4068845;29;20212;-58
2022/07/08 02:50:37;;;;;;;3.40;1.80;;;;;;;13.77;68.19;99800.25;4085080;29;20232;-59
2022/07/08 02:52:39;;;;;;;3.40;1.55;;;;;;;13.75;68.03;99800.47;4076054;29;20250;-59
2022/07/08 02:54:40;;;;;;;3.25;1.30;;;;;;;13.70;68.31;99803.09;4053173;29;20272;-59
2022/07/08 02:56:42;;;;;;;3.95;1.63;;;;;;;13.56;68.65;99807.16;4070284;29;20215;-58
2022/07/08 02:58:44;;;;;;;6.72;1.98;;;;;;;13.49;69.28;99814.69;4069432;29;20211;-59
2022/07/08 03:00:45;;;;;;;2.47;1.20;;;;;;;13.39;69.61;99808.97;4081150;28;20231;-59
2022/07/08 03:02:47;;;;;;;5.35;1.65;;;;;;;13.12;70.31;99804.09;4085442;29;21065;-60
2022/07/08 03:04:49;;;;;;;6.32;1.52;;;;;;;13.14;70.46;99808.28;4095969;28;20211;-58
2022/07/08 03:06:51;;;;;;;5.18;2.47;;;;;;;13.27;69.75;99810.84;4082067;28;20212;-58
2022/07/08 03:08:52;;;;;;;3.92;1.90;;;;;;;13.38;69.57;99815.50;4087494;29;20698;-59
2022/07/08 03:10:54;;;;;;;5.10;1.92;;;;;;;13.46;69.41;99817.94;4071199;29;20327;-59
2022/07/08 03:12:56;;;;;;;4.53;1.42;;;;;;;13.57;69.31;99821.78;4065982;29;20243;-60
2022/07/08 03:14:57;;;;;;;2.70;1.20;;;;;;;13.57;68.79;99825.34;4084032;28;20259;-59
2022/07/08 03:16:59;;;;;;;3.92;1.65;;;;;;;13.59;69.01;99827.88;4072238;29;20209;-59
2022/07/08 03:19:01;;;;;;;3.13;1.70;;;;;;;13.14;70.23;99829.44;4080190;29;20730;-60
2022/07/08 03:21:03;;;;;;;4.88;2.22;;;;;;;13.09;70.47;99827.38;4074350;29;20216;-60
2022/07/08 03:23:05;;;;;;;4.80;1.88;;;;;;;13.15;70.25;99836.59;4085337;28;20203;-58
2022/07/08 03:25:07;;;;;;;4.53;1.67;;;;;;;13.21;70.00;99836.53;4076174;29;20250;-60
2022/07/08 03:27:09;;;;;;;4.85;3.75;;;;;;;13.26;69.62;99833.91;4083163;28;20239;-59
2022/07/08 03:29:11;;;;;;;7.07;2.10;;;;;;;13.32;69.66;99838.47;4086730;29;20312;-60
2022/07/08 03:31:13;;;;;;;4.22;1.80;;;;;;;13.35;69.28;99837.97;4087394;28;20232;-60
2022/07/08 03:33:15;;;;;;;3.83;1.40;;;;;;;13.38;69.51;99840.25;4071629;29;20216;-59
2022/07/08 03:35:17;;;;;;;5.05;1.85;;;;;;;13.43;69.29;99840.38;4067449;29;20243;-59
2022/07/08 03:37:18;;;;;;;2.92;1.63;;;;;;;13.45;69.28;99837.41;4072550;29;20268;-59
2022/07/08 03:39:20;;;;;;;6.72;1.40;;;;;;;13.44;69.05;99841.25;4070986;29;20283;-59
2022/07/08 03:41:23;;;;;;;4.32;1.70;;;;;;;13.44;69.12;99830.25;4073267;29;20216;-58
2022/07/08 03:43:25;;;;;;;3.03;1.20;;;;;;;13.31;69.70;99842.25;4074137;29;20649;-59
2022/07/08 03:45:27;;;;;;;4.55;2.08;;;;;;;13.26;69.61;99839.41;4088444;29;20216;-58
2022/07/08 03:47:28;;;;;;;3.42;1.90;;;;;;;13.15;69.91;99837.44;4054722;29;20239;-60
2022/07/08 03:49:30;;;;;;;4.55;1.63;;;;;;;13.12;69.90;99843.44;4071010;29;20231;-60
2022/07/08 03:51:32;;;;;;;4.10;1.70;;;;;;;13.12;69.83;99835.19;4082905;29;20259;-59
2022/07/08 03:53:33;;;;;;;2.05;1.33;;;;;;;13.13;69.69;99845.09;4090476;28;20274;-59
2022/07/08 03:55:35;;;;;;;5.20;1.63;;;;;;;13.12;69.85;99845.34;4096328;28;20203;-58
2022/07/08 03:57:37;;;;;;;8.30;2.03;;;;;;;13.09;70.37;99843.88;4089863;29;20211;-59
2022/07/08 03:59:39;;;;;;;6.00;2.03;;;;;;;13.08;69.57;99852.34;4088333;29;20230;-59
2022/07/08 04:01:40;;;;;;;4.57;1.50;;;;;;;13.09;70.09;99843.06;4069175;29;20213;-59
2022/07/08 04:03:42;;;;;;;5.55;2.00;;;;;;;13.11;69.76;99847.22;4068093;29;20216;-59
2022/07/08 04:05:44;;;;;;;4.00;1.50;;;;;;;13.10;69.70;99850.22;4069549;29;20212;-58
2022/07/08 04:07:45;;;;;;;3.92;1.65;;;;;;;13.03;70.02;99849.50;4073826;29;20216;-59
2022/07/08 04:09:50;;;;;;;4.70;1.77;;;;;;;12.96;70.15;99857.81;4075386;29;20319;-59
2022/07/08 04:11:52;;;;;;;4.28;1.85;;;;;;;12.90;70.55;99861.44;4069234;29;20330;-59
2022/07/08 04:13:53;;;;;;;3.88;1.65;;;;;;;12.91;70.20;99859.56;4074716;29;21752;-60
2022/07/08 04:15:56;;;;;;;3.20;1.40;;;;;;;12.71;71.16;99854.31;4066846;29;20302;-59
2022/07/08 04:17:57;;;;;;;10.93;2.03;;;;;;;12.67;71.24;99844.88;4082569;29;20608;-59
2022/07/08 04:19:59;;;;;;;4.63;3.60;;;;;;;12.79;71.11;99848.53;4084162;28;20318;-59
2022/07/08 04:22:01;;;;;;;9.82;2.28;;;;;;;12.81;71.24;99857.34;4085742;29;20206;-58
2022/07/08 04:24:03;;;;;;;6.68;1.92;;;;;;;12.86;71.10;99849.28;4083908;28;20298;-59
2022/07/08 04:26:05;;;;;;;6.68;1.98;;;;;;;12.87;70.67;99861.94;4089147;29;20660;-58
2022/07/08 04:28:06;;;;;;;4.72;1.50;;;;;;;12.92;70.68;99859.34;4076827;29;20208;-59
2022/07/08 04:30:08;;;;;;;5.40;1.83;;;;;;;12.94;70.79;99854.44;4082373;29;20242;-59
2022/07/08 04:32:10;;;;;;;17.88;2.50;;;;;;;12.97;70.95;99855.91;4088658;29;20223;-59
2022/07/08 04:34:11;;;;;;;18.25;3.60;;;;;;;12.91;71.11;99857.63;4082040;29;20298;-59
2022/07/08 04:36:13;;;;;;;16.90;3.45;;;;;;;13.03;70.97;99861.31;4087044;29;20294;-59
2022/07/08 04:38:15;;;;;;;25.13;3.97;;;;;;;13.03;70.74;99866.78;4081746;28;20222;-59
2022/07/08 04:40:16;;;;;;;27.00;3.03;;;;;;;13.05;70.61;99867.41;4084302;28;20263;-60
2022/07/08 04:42:18;;;;;;;19.63;4.40;;;;;;;13.09;70.71;99865.88;4083097;28;20232;-60
2022/07/08 04:44:20;;;;;;;20.27;2.78;;;;;;;13.10;70.91;99877.72;4083635;28;20271;-60
2022/07/08 04:46:21;;;;;;;24.85;4.13;;;;;;;13.16;70.77;99883.09;4086902;29;20309;-58
2022/07/08 04:48:24;;;;;;;32.70;3.45;;;;;;;13.19;70.53;99888.16;4089226;29;20219;-61
2022/07/08 04:50:26;;;;;;;24.05;3.70;;;;;;;13.26;70.52;99885.28;4070115;29;20239;-59
2022/07/08 04:52:28;;;;;;;15.70;3.00;;;;;;;13.30;70.66;99887.34;4071981;29;20258;-60
2022/07/08 04:54:30;;;;;;;16.30;2.47;;;;;;;13.35;70.35;99887.47;4085854;29;20203;-59
2022/07/08 04:56:32;;;;;;;14.27;2.88;;;;;;;13.40;70.42;99884.88;4090213;29;20204;-59
2022/07/08 04:58:33;;;;;;;4.63;2.42;;;;;;;13.45;70.33;99895.16;4085460;28;20672;-60
2022/07/08 05:00:35;;;;;;;8.18;1.95;;;;;;;13.50;70.26;99898.88;4070877;29;20259;-60
2022/07/08 05:02:37;;;;;;;4.60;1.70;;;;;;;13.57;70.27;99902.34;4065457;29;20217;-60
2022/07/08 05:04:39;;;;;;;2.38;1.42;;;;;;;13.58;70.03;99909.53;4088659;28;20669;-60
2022/07/08 05:06:45;;;;;;;5.82;1.70;;;;;;;13.61;70.08;99903.56;4079999;29;20769;-60
2022/07/08 05:08:46;;;;;;;2.97;1.48;;;;;;;13.66;70.52;99906.47;4089271;29;20200;-59
2022/07/08 05:10:48;;;;;;;5.60;1.58;;;;;;;13.69;70.33;99916.97;4086205;28;20207;-59
2022/07/08 05:12:50;;;;;;;5.82;1.48;;;;;;;13.78;70.09;99915.56;4101262;28;20265;-58
2022/07/08 05:14:52;;;;;;;3.45;1.88;;;;;;;13.83;70.20;99912.94;4082580;28;20212;-59
2022/07/08 05:16:54;;;;;;;3.35;1.88;;;;;;;13.87;70.19;99908.66;4086291;29;20211;-58
2022/07/08 05:18:56;;;;;;;7.15;2.25;;;;;;;13.93;69.90;99912.38;4111508;28;20217;-61
2022/07/08 05:20:57;;;;;;;8.45;2.35;;;;;;;13.99;69.95;99912.25;4084995;28;20206;-60
2022/07/08 05:22:59;;;;;;;4.47;1.98;;;;;;;14.06;69.99;99914.88;4083551;29;20727;-60
2022/07/08 05:25:02;;;;;;;8.75;1.80;;;;;;;14.18;69.61;99918.50;4085015;29;21102;-60
2022/07/08 05:27:06;;;;;;;5.60;1.92;;;;;;;14.30;69.62;99925.69;4083650;28;20211;-60
2022/07/08 05:29:07;;;;;;;4.35;1.65;;;;;;;14.35;69.65;99916.72;4082330;29;20318;-60
2022/07/08 05:31:09;;;;;;;4.53;1.77;;;;;;;14.44;69.53;99915.28;4088459;28;20274;-60
2022/07/08 05:33:11;;;;;;;5.30;1.45;;;;;;;14.46;69.49;99924.13;4069663;29;20246;-61
2022/07/08 05:35:13;;;;;;;3.50;1.65;;;;;;;14.65;69.05;99923.78;4065777;29;20212;-60
2022/07/08 05:37:15;;;;;;;5.10;1.60;;;;;;;14.75;68.46;99935.00;4083358;28;20658;-61
2022/07/08 05:39:16;;;;;;;4.35;1.70;;;;;;;14.84;67.91;99921.69;4059536;29;20239;-60
2022/07/08 05:41:18;;;;;;;4.07;1.38;;;;;;;14.94;67.97;99928.25;4066445;29;20970;-60
2022/07/08 05:43:20;;;;;;;3.65;1.63;;;;;;;15.05;68.53;99924.66;4068922;29;20213;-60
2022/07/08 05:45:22;;;;;;;4.03;1.35;;;;;;;15.14;68.10;99925.91;4071130;29;20307;-60
2022/07/08 05:47:23;;;;;;;12.30;2.13;;;;;;;15.31;67.71;99929.56;4053469;29;20273;-61
2022/07/08 05:49:25;;;;;;;6.53;1.23;;;;;;;15.44;67.53;99926.53;4065395;29;20249;-60
2022/07/08 05:51:27;;;;;;;5.70;1.65;;;;;;;15.59;66.44;99937.03;4082800;28;20753;-60
2022/07/08 05:53:29;;;;;;;4.72;1.58;;;;;;;15.61;66.34;99941.22;4069372;29;20256;-60
2022/07/08 05:55:31;;;;;;;6.25;1.85;;;;;;;15.78;66.00;99944.88;4068036;29;20290;-59
2022/07/08 05:57:33;;;;;;;7.05;1.95;;;;;;;16.06;66.21;99944.81;4070320;29;20290;-57
2022/07/08 05:59:35;;;;;;;5.75;1.50;;;;;;;16.22;64.82;99949.47;4082079;29;20267;-58
2022/07/08 06:01:36;;;;;;;6.63;1.85;;;;;;;16.41;65.14;99950.94;4075008;29;20251;-58
2022/07/08 06:03:38;;;;;;;3.92;1.58;;;;;;;16.40;64.74;99952.03;4088477;28;20219;-59
2022/07/08 06:05:40;;;;;;;4.35;1.50;;;;;;;16.58;63.75;99965.59;4084525;28;20598;-59
2022/07/08 06:07:42;;;;;;;3.65;1.35;;;;;;;16.39;63.50;99960.56;4083446;29;20216;-58
2022/07/08 06:09:44;;;;;;;6.30;2.10;;;;;;;16.42;63.50;99955.38;4068698;29;20265;-57
2022/07/08 06:11:49;;;;;;;5.22;1.45;;;;;;;16.30;64.13;99962.88;4072648;29;20208;-59
2022/07/08 06:13:51;;;;;;;10.05;1.65;;;;;;;16.46;64.55;99962.06;4087157;29;20212;-60
2022/07/08 06:15:52;;;;;;;6.82;1.58;;;;;;;16.64;64.07;99964.53;4098381;28;20219;-58
2022/07/08 06:17:54;;;;;;;4.10;1.80;;;;;;;16.90;63.44;99966.59;4081379;29;20243;-59
2022/07/08 06:19:56;;;;;;;6.05;1.67;;;;;;;17.09;62.79;99967.94;4085587;29;20230;-59
2022/07/08 06:21:58;;;;;;;4.63;1.48;;;;;;;17.10;61.61;99964.09;4070728;29;20237;-57
2022/07/08 06:24:00;;;;;;;5.40;1.15;;;;;;;17.20;62.05;99967.00;4080025;28;20322;-59
2022/07/08 06:26:02;;;;;;;10.85;2.10;;;;;;;17.25;61.46;99961.53;4082303;29;20207;-59
2022/07/08 06:28:04;;;;;;;5.10;1.20;;;;;;;17.37;60.94;99968.63;4085269;29;20599;-60
2022/07/08 06:30:06;;;;;;;4.03;1.10;;;;;;;17.42;60.62;99960.41;4064617;29;20227;-58
2022/07/08 06:32:08;;;;;;;2.88;0.93;;;;;;;17.51;60.68;99952.47;4096734;28;20922;-60
2022/07/08 06:34:13;;;;;;;4.40;1.30;;;;;;;17.59;59.82;99952.81;4090235;29;20211;-60
2022/07/08 06:36:15;;;;;;;5.55;1.35;;;;;;;17.66;59.95;99955.41;4085719;28;20216;-58
2022/07/08 06:38:16;;;;;;;2.47;1.48;;;;;;;17.77;59.88;99959.94;4086811;29;20235;-59
2022/07/08 06:40:21;;;;;;;5.82;1.42;;;;;;;17.58;58.53;99953.91;4088310;28;20235;-59
2022/07/08 06:42:23;;;;;;;8.85;1.50;;;;;;;17.47;59.39;99963.22;4116903;28;20215;-58
2022/07/08 06:44:27;;;;;;;6.10;1.73;;;;;;;17.33;59.71;99958.31;4088958;29;20306;-59
2022/07/08 06:46:29;;;;;;;4.93;1.80;;;;;;;17.41;60.13;99967.03;4073928;29;20248;-59
2022/07/08 06:48:31;;;;;;;2.28;1.30;;;;;;;17.36;59.61;99968.84;4077871;29;20771;-59
2022/07/08 06:50:33;;;;;;;5.25;1.40;;;;;;;17.20;59.80;99967.81;4088191;29;20259;-59
2022/07/08 06:52:35;;;;;;;3.17;1.35;;;;;;;17.10;60.16;99966.84;4089600;28;20223;-59
2022/07/08 06:54:37;;;;;;;7.57;1.00;;;;;;;17.07;60.30;99970.16;4072508;29;20216;-59
2022/07/08 06:56:39;;;;;;;5.38;1.27;;;;;;;16.79;60.46;99967.56;4078638;28;20282;-59
2022/07/08 06:58:41;;;;;;;10.52;2.75;;;;;;;16.69;60.29;99977.63;4087577;29;20226;-61
2022/07/08 07:00:43;;;;;;;4.10;1.30;;;;;;;16.59;60.44;99972.78;4087557;29;20659;-59
2022/07/08 07:02:44;;;;;;;2.17;1.52;;;;;;;16.60;61.01;99981.88;4089396;29;20634;-59
2022/07/08 07:04:47;;;;;;;8.45;0.98;;;;;;;16.56;60.75;99978.78;4070237;29;20312;-58
2022/07/08 07:06:48;;;;;;;3.60;1.30;;;;;;;16.78;60.43;99976.94;4072138;29;20261;-58
2022/07/08 07:08:53;;;;;;;8.88;1.30;;;;;;;17.21;59.82;99977.81;4072810;29;20221;-59
2022/07/08 07:10:54;;;;;;;4.13;1.20;;;;;;;17.73;59.05;99975.41;4058752;29;20313;-59
2022/07/08 07:12:56;;;;;;;3.25;1.27;;;;;;;18.13;58.58;99970.28;4087767;28;20234;-57
2022/07/08 07:14:58;;;;;;;3.53;1.00;;;;;;;18.14;57.00;99972.78;4093116;29;20664;-59
2022/07/08 07:17:00;;;;;;;2.17;1.20;;;;;;;18.02;56.76;99974.03;4077964;29;20216;-59
2022/07/08 07:19:02;;;;;;;4.13;0.98;;;;;;;17.96;56.53;99980.63;4089448;29;20215;-58
2022/07/08 07:21:04;;;;;;;4.93;1.35;;;;;;;17.73;55.90;99981.78;4089854;28;20661;-58
2022/07/08 07:23:06;;;;;;;5.00;1.60;;;;;;;17.82;56.89;99984.91;4090016;29;20341;-57
2022/07/08 07:25:08;;;;;;;4.50;2.33;;;;;;;17.83;56.99;99975.50;4069409;29;20220;-58
2022/07/08 07:27:13;;;;;;;2.78;1.08;;;;;;;17.71;57.30;99978.44;4066099;29;20213;-58
2022/07/08 07:29:15;;;;;;;4.43;1.23;;;;;;;17.65;57.10;99973.13;4089132;29;20279;-59
2022/07/08 07:31:17;;;;;;;2.83;1.20;;;;;;;17.68;56.82;99983.66;4094504;29;20238;-59
2022/07/08 07:33:19;;;;;;;5.63;1.00;;;;;;;17.45;57.44;99984.78;4072466;29;20275;-58
2022/07/08 07:35:21;;;;;;;4.13;1.30;;;;;;;17.70;56.51;99978.69;4057341;29;20685;-59
2022/07/08 07:37:22;;;;;;;3.22;1.60;;;;;;;17.52;56.46;99984.59;4087459;29;20211;-59
2022/07/08 07:39:25;;;;;;;3.22;1.15;;;;;;;17.84;55.35;99985.50;4080445;29;20727;-58
2022/07/08 07:41:27;;;;;;;3.08;1.08;;;;;;;18.01;55.76;99983.47;4091871;29;20303;-58
2022/07/08 07:43:29;;;;;;;3.30;1.05;;;;;;;18.00;55.81;99973.47;4072565;29;20632;-58
2022/07/08 07:45:31;;;;;;;3.63;1.00;;;;;;;18.11;55.37;99972.47;4077060;29;20208;-58
2022/07/08 07:47:33;;;;;;;3.97;0.80;;;;;;;17.82;53.76;99962.75;4068052;29;20247;-58
2022/07/08 07:49:34;;;;;;;4.53;1.13;;;;;;;17.78;54.19;99972.72;4069364;29;20292;-57
2022/07/08 07:51:36;;;;;;;4.75;0.68;;;;;;;17.90;54.68;99981.66;4085339;28;20298;-57
2022/07/08 07:53:38;;;;;;;3.63;1.10;;;;;;;17.74;55.78;99974.31;4086045;28;20348;-58
2022/07/08 07:55:40;;;;;;;2.70;1.08;;;;;;;17.90;55.23;99970.59;4085516;28;20251;-58
2022/07/08 07:57:42;;;;;;;4.68;0.85;;;;;;;17.85;55.57;99973.34;4073108;29;20216;-58
2022/07/08 07:59:45;;;;;;;3.65;1.13;;;;;;;17.72;56.40;99971.78;4070600;29;20243;-58
2022/07/08 08:01:46;;;;;;;3.28;1.15;;;;;;;17.71;56.46;99966.53;4096106;28;20215;-58
2022/07/08 08:03:48;;;;;;;3.60;1.05;;;;;;;17.88;55.82;99961.72;4097934;28;20207;-54
2022/07/08 08:05:51;;;;;;;3.53;1.00;;;;;;;18.12;53.36;99963.06;4078204;28;20774;-58
2022/07/08 08:07:53;;;;;;;5.55;1.05;;;;;;;17.98;52.70;99964.59;4077140;29;20208;-55
2022/07/08 08:09:54;;;;;;;6.28;1.23;;;;;;;18.27;54.02;99966.81;4109294;28;20226;-58
2022/07/08 08:11:56;;;;;;;3.33;1.23;;;;;;;18.88;52.77;99970.88;4094849;28;20687;-58
2022/07/08 08:13:58;;;;;;;3.92;1.17;;;;;;;19.27;52.32;99966.66;4085232;29;20731;-59
2022/07/08 08:15:59;;;;;;;6.20;1.27;;;;;;;19.58;51.49;99969.28;4088114;29;20738;-58
2022/07/08 08:18:01;;;;;;;2.83;0.73;;;;;;;20.05;51.70;99969.13;4082198;28;20208;-59
2022/07/08 08:20:05;;;;;;;2.75;0.93;;;;;;;19.63;50.25;99972.09;4083002;28;20266;-51
2022/07/08 08:22:11;;;;;;;1.95;1.45;;;;;;;19.68;51.23;99977.66;4073642;29;20235;-51
2022/07/08 08:24:14;;;;;;;6.18;1.25;;;;;;;19.06;51.73;99976.78;4099629;28;20451;-52
2022/07/08 08:26:17;;;;;;;3.92;1.30;;;;;;;18.68;52.61;99974.38;4072705;29;20311;-52
2022/07/08 08:28:18;;;;;;;7.78;1.73;;;;;;;18.75;52.93;99979.66;4072737;29;20638;-51
2022/07/08 08:30:20;;;;;;;2.10;0.95;;;;;;;19.20;53.23;99982.75;4075080;29;20261;-51
2022/07/08 08:32:22;;;;;;;3.47;0.90;;;;;;;19.13;51.72;99973.78;4087022;29;20219;-52
2022/07/08 08:34:24;;;;;;;3.15;1.25;;;;;;;19.03;52.62;99976.50;4079956;29;20223;-51
2022/07/08 08:36:26;;;;;;;2.40;0.70;;;;;;;19.60;51.97;99975.44;4072786;29;20759;-51
2022/07/08 08:38:28;;;;;;;5.28;1.48;;;;;;;19.91;50.73;99974.38;4096032;29;20207;-51
2022/07/08 08:40:31;;;;;;;3.53;0.95;;;;;;;20.00;49.80;99977.44;4090036;29;20227;-51
2022/07/08 08:42:33;;;;;;;3.97;0.95;;;;;;;20.39;49.63;99973.06;4072135;29;20275;-51
2022/07/08 08:44:35;;;;;;;3.63;1.17;;;;;;;20.45;49.40;99981.13;4087505;29;20236;-51
2022/07/08 08:46:37;;;;;;;3.85;1.10;;;;;;;20.88;49.90;99980.56;4084543;28;20231;-51
2022/07/08 08:48:39;;;;;;;3.88;1.23;;;;;;;20.66;47.65;99976.41;4087608;29;20293;-51
2022/07/08 08:50:53;;;;;;;3.83;0.90;;;;;;;20.94;49.37;99973.88;4095757;29;20231;-51
2022/07/08 08:52:56;;;;;;;4.55;1.20;;;;;;;21.04;48.46;99973.03;4089739;29;20301;-51
2022/07/08 08:54:58;;;;;;;2.63;1.00;;;;;;;21.18;48.53;99974.09;4089415;28;20211;-51
2022/07/08 08:57:00;;;;;;;4.00;1.00;;;;;;;21.26;46.40;99965.16;4096690;29;20207;-51
2022/07/08 08:59:02;;;;;;;5.45;1.27;;;;;;;21.38;46.08;99957.31;4089605;29;20223;-51
2022/07/08 09:01:06;;;;;;;3.80;1.10;;;;;;;21.76;47.33;99970.50;4101211;28;20222;-51
2022/07/08 09:03:08;;;;;;;3.03;1.08;;;;;;;21.86;46.52;99960.16;4096180;29;20207;-51
2022/07/08 09:05:10;;;;;;;2.63;1.05;;;;;;;22.04;46.34;99956.66;4095316;28;20262;-50
2022/07/08 09:07:11;;;;;;;7.13;1.20;;;;;;;21.93;43.98;99951.47;4094708;29;20277;-51
2022/07/08 09:09:13;;;;;;;2.17;1.00;;;;;;;22.19;45.74;99958.53;4119291;28;20225;-51
2022/07/08 09:11:17;;;;;;;10.35;1.08;;;;;;;22.12;45.37;99952.44;4076306;29;20214;-51
2022/07/08 09:13:23;;;;;;;5.88;1.02;;;;;;;22.09;44.23;99953.00;4103401;28;20222;-51
2022/07/08 09:15:45;;;;;;;2.05;0.95;;;;;;;21.98;44.75;99957.00;4089999;29;20301;-51
2022/07/08 09:17:47;;;;;;;3.80;1.00;;;;;;;22.32;45.46;99958.69;4109281;28;20242;-51
2022/07/08 09:19:50;;;;;;;3.28;1.00;;;;;;;22.31;44.68;99968.19;4071844;29;20320;-51
2022/07/08 09:21:52;;;;;;;5.22;1.58;;;;;;;22.33;44.97;99959.53;4074539;29;20211;-51
2022/07/08 09:23:55;;;;;;;1.52;0.85;;;;;;;22.40;44.67;99968.41;4070579;29;20207;-51
2022/07/08 09:26:04;;;;;;;2.92;0.90;;;;;;;22.73;43.52;99959.19;4056880;29;20212;-51
2022/07/08 09:28:06;;;;;;;2.33;1.08;;;;;;;22.78;43.85;99959.16;4087311;29;20608;-51
2022/07/08 09:30:08;;;;;;;2.53;0.77;;;;;;;22.70;43.20;99965.38;4099752;28;20226;-51
2022/07/08 09:32:14;;;;;;;2.10;0.93;;;;;;;22.97;43.00;99960.91;4077585;29;20703;-51
2022/07/08 09:34:20;;;;;;;1.83;0.77;;;;;;;22.98;43.65;99970.13;4090935;28;20609;-52
2022/07/08 09:36:22;;;;;;;2.30;0.70;;;;;;;23.17;42.98;99965.47;4095104;29;20698;-51